createdAt,value
2022-10-16T00:01:28.784Z,16.02
2022-10-16T00:07:00.672Z,15.99
2022-10-16T00:12:32.286Z,15.92
2022-10-16T00:18:04.100Z,15.89
2022-10-16T00:20:15.870Z,15.85
2022-10-16T00:25:47.646Z,15.84
2022-10-16T00:31:19.618Z,15.82
2022-10-16T00:36:51.297Z,15.81
2022-10-16T00:42:23.252Z,15.81
2022-10-16T00:47:54.514Z,15.81
2022-10-16T00:53:26.218Z,15.81
2022-10-16T00:58:58.005Z,15.81
2022-10-16T01:04:29.816Z,15.79
2022-10-16T01:10:01.671Z,15.76
2022-10-16T01:15:33.314Z,15.76
2022-10-16T01:21:05.116Z,15.74
2022-10-16T01:26:36.903Z,15.67
2022-10-16T01:34:21.177Z,15.58
2022-10-16T01:39:52.627Z,15.58
2022-10-16T01:45:23.974Z,15.56
2022-10-16T01:50:55.689Z,15.56
2022-10-16T01:56:27.497Z,15.57
2022-10-16T02:01:59.179Z,15.58
2022-10-16T02:07:30.893Z,15.56
2022-10-16T02:13:02.416Z,15.54
2022-10-16T02:18:34.139Z,15.51
2022-10-16T02:24:05.900Z,15.47
2022-10-16T02:29:37.475Z,15.43
2022-10-16T02:35:09.434Z,15.39
2022-10-16T02:40:41.018Z,15.34
2022-10-16T02:46:12.981Z,15.26
2022-10-16T02:51:44.522Z,15.26
2022-10-16T02:57:16.263Z,15.23
2022-10-16T03:02:48.015Z,15.21
2022-10-16T03:08:19.981Z,15.16
2022-10-16T03:13:51.675Z,15.13
2022-10-16T03:19:23.513Z,15.09
2022-10-16T03:24:55.239Z,15.13
2022-10-16T03:30:26.778Z,15.16
2022-10-16T03:35:58.528Z,15.19
2022-10-16T03:41:29.804Z,15.26
2022-10-16T03:47:01.100Z,15.30
2022-10-16T03:52:32.970Z,15.39
2022-10-16T03:58:04.683Z,15.40
2022-10-16T04:03:36.514Z,15.47
2022-10-16T04:09:08.334Z,15.54
2022-10-16T04:14:39.946Z,15.58
2022-10-16T04:20:11.617Z,15.57
2022-10-16T04:25:43.394Z,15.62
2022-10-16T04:31:15.315Z,15.65
2022-10-16T04:36:47.593Z,15.62
2022-10-16T04:42:19.250Z,15.67
2022-10-16T04:47:50.990Z,15.67
2022-10-16T04:53:22.613Z,15.71
2022-10-16T04:58:54.123Z,15.68
2022-10-16T05:04:25.718Z,15.71
2022-10-16T05:09:57.425Z,15.68
2022-10-16T05:15:28.804Z,15.68
2022-10-16T05:21:00.506Z,15.67
2022-10-16T05:26:32.235Z,15.69
2022-10-16T05:32:03.691Z,15.69
2022-10-16T05:37:35.581Z,15.68
2022-10-16T05:43:07.110Z,15.71
2022-10-16T05:48:38.947Z,15.67
2022-10-16T05:54:10.552Z,15.67
2022-10-16T05:59:41.890Z,15.68
2022-10-16T06:05:13.477Z,15.67
2022-10-16T06:10:45.028Z,15.65
2022-10-16T06:16:16.786Z,15.61
2022-10-16T06:21:48.434Z,15.60
2022-10-16T06:27:20.407Z,15.57
2022-10-16T06:32:52.232Z,15.62
2022-10-16T06:38:24.011Z,15.62
2022-10-16T06:43:58.021Z,15.62
2022-10-16T06:49:29.567Z,15.69
2022-10-16T06:55:01.413Z,15.74
2022-10-16T07:00:33.037Z,15.81
2022-10-16T07:06:04.805Z,15.95
2022-10-16T07:11:36.541Z,16.10
2022-10-16T07:17:08.295Z,16.72
2022-10-16T07:22:40.098Z,17.07
2022-10-16T07:28:11.831Z,18.31
2022-10-16T07:33:43.608Z,19.23
2022-10-16T07:39:15.333Z,20.88
2022-10-16T07:44:47.082Z,21.40
2022-10-16T07:50:18.896Z,22.27
2022-10-16T07:55:50.538Z,22.71
2022-10-16T08:01:22.108Z,23.58
2022-10-16T08:06:53.478Z,24.03
2022-10-16T08:12:25.240Z,24.88
2022-10-16T08:17:57.158Z,25.23
2022-10-16T08:23:28.939Z,25.88
2022-10-16T08:29:00.989Z,26.19
2022-10-16T08:34:32.966Z,26.71
2022-10-16T08:45:34.652Z,27.31
2022-10-16T08:51:06.698Z,27.37
2022-10-16T08:56:38.703Z,27.37
2022-10-16T09:02:10.962Z,27.29
2022-10-16T09:07:43.395Z,27.05
2022-10-16T09:13:15.398Z,26.86
2022-10-16T09:18:47.214Z,26.61
2022-10-16T09:24:19.109Z,26.43
2022-10-16T09:29:51.977Z,26.23
2022-10-16T09:35:23.673Z,26.19
2022-10-16T09:40:59.254Z,26.03
2022-10-16T09:46:27.339Z,25.99
2022-10-16T09:51:59.486Z,25.95
2022-10-16T09:57:31.487Z,25.93
2022-10-16T10:08:33.066Z,25.88
2022-10-16T10:14:04.758Z,25.92
2022-10-16T10:19:36.356Z,25.95
2022-10-16T10:27:28.364Z,0.00
2022-10-16T10:33:00.219Z,26.05
2022-10-16T10:38:32.014Z,26.06
2022-10-16T10:44:03.987Z,26.12
2022-10-16T10:49:35.864Z,26.16
2022-10-16T10:55:07.603Z,26.30
2022-10-16T11:00:39.569Z,26.34
2022-10-16T11:06:11.212Z,26.41
2022-10-16T11:11:43.034Z,26.40
2022-10-16T11:17:14.969Z,26.43
2022-10-16T11:22:47.116Z,26.47
2022-10-16T11:28:18.807Z,26.57
2022-10-16T11:33:50.629Z,26.60
2022-10-16T11:39:22.205Z,26.68
2022-10-16T11:44:54.109Z,26.69
2022-10-16T11:50:25.774Z,26.78
2022-10-16T11:55:57.575Z,26.86
2022-10-16T12:01:29.357Z,27.05
2022-10-16T12:07:01.282Z,27.13
2022-10-16T12:12:39.821Z,27.23
2022-10-16T12:18:11.453Z,27.27
2022-10-16T12:23:49.272Z,27.37
2022-10-16T12:29:21.054Z,27.34
2022-10-16T12:34:52.524Z,27.40
2022-10-16T12:40:24.495Z,27.43
2022-10-16T12:45:56.611Z,27.53
2022-10-16T12:51:28.591Z,27.49
2022-10-16T12:57:00.319Z,27.39
2022-10-16T13:02:31.635Z,27.31
2022-10-16T13:08:03.842Z,27.22
2022-10-16T13:13:36.011Z,27.16
2022-10-16T13:19:10.939Z,27.03
2022-10-16T13:24:42.693Z,26.99
2022-10-16T13:30:14.980Z,26.91
2022-10-16T13:35:46.853Z,26.85
2022-10-16T13:41:24.408Z,26.79
2022-10-16T13:46:56.494Z,26.79
2022-10-16T13:52:30.608Z,26.75
2022-10-16T13:58:03.859Z,26.71
2022-10-16T14:03:35.855Z,26.69
2022-10-16T14:09:07.628Z,26.71
2022-10-16T14:14:39.500Z,26.64
2022-10-16T14:20:11.560Z,26.61
2022-10-16T14:25:43.309Z,26.54
2022-10-16T14:31:17.369Z,26.57
2022-10-16T14:36:49.506Z,26.54
2022-10-16T14:42:21.787Z,26.48
2022-10-16T14:47:53.846Z,26.37
2022-10-16T14:53:25.590Z,26.33
2022-10-16T14:58:57.595Z,26.17
2022-10-16T15:04:29.658Z,26.12
2022-10-16T15:10:01.422Z,25.91
2022-10-16T15:15:33.201Z,25.84
2022-10-16T15:21:05.370Z,25.64
2022-10-16T15:26:36.980Z,25.57
2022-10-16T15:32:09.092Z,25.38
2022-10-16T15:37:41.472Z,25.29
2022-10-16T15:43:13.283Z,25.12
2022-10-16T15:48:44.961Z,25.02
2022-10-16T15:54:16.558Z,24.82
2022-10-16T15:59:48.691Z,24.74
2022-10-16T16:05:20.614Z,24.52
2022-10-16T16:10:53.688Z,24.43
2022-10-16T16:16:25.569Z,24.23
2022-10-16T16:21:58.675Z,24.09
2022-10-16T16:27:33.354Z,23.81
2022-10-16T16:33:05.478Z,23.68
2022-10-16T16:38:37.289Z,23.42
2022-10-16T16:44:09.153Z,23.30
2022-10-16T16:49:42.325Z,23.10
2022-10-16T16:55:14.343Z,22.99
2022-10-16T17:00:56.424Z,22.74
2022-10-16T17:06:20.670Z,22.64
2022-10-16T17:11:50.065Z,22.41
2022-10-16T17:17:22.316Z,22.30
2022-10-16T17:22:54.421Z,22.19
2022-10-16T17:28:26.364Z,22.12
2022-10-16T17:33:59.614Z,21.95
2022-10-16T17:39:31.784Z,21.92
2022-10-16T17:45:03.615Z,21.75
2022-10-16T17:50:35.105Z,21.69
2022-10-16T17:56:09.310Z,21.50
2022-10-16T18:01:41.185Z,21.40
2022-10-16T18:12:44.954Z,21.13
2022-10-16T18:18:17.036Z,20.90
2022-10-16T18:23:51.714Z,20.82
2022-10-16T18:29:20.731Z,20.62
2022-10-16T18:34:53.031Z,20.55
2022-10-16T18:40:25.171Z,20.40
2022-10-16T18:45:56.860Z,20.33
2022-10-16T18:51:28.338Z,20.17
2022-10-16T18:57:00.142Z,20.06
2022-10-16T19:02:32.079Z,19.89
2022-10-16T19:08:04.413Z,19.76
2022-10-16T19:13:36.193Z,19.55
2022-10-16T19:19:08.037Z,19.45
2022-10-16T19:24:40.035Z,19.26
2022-10-16T19:38:04.463Z,0.00
2022-10-16T19:43:36.363Z,18.74
2022-10-16T19:49:07.951Z,18.65
2022-10-16T19:54:39.535Z,18.44
2022-10-16T20:00:12.821Z,18.33
2022-10-16T20:05:44.637Z,18.14
2022-10-16T20:11:16.582Z,18.06
2022-10-16T20:16:48.383Z,17.93
2022-10-16T20:22:20.415Z,17.88
2022-10-16T20:27:52.094Z,17.76
2022-10-16T20:33:23.968Z,17.71
2022-10-16T20:38:55.876Z,17.61
2022-10-16T20:44:27.891Z,17.58
2022-10-16T20:49:59.354Z,17.50
2022-10-16T20:55:31.133Z,17.47
2022-10-16T21:01:02.997Z,17.40
2022-10-16T21:06:34.905Z,17.34
2022-10-16T21:12:06.529Z,17.20
2022-10-16T21:17:38.332Z,17.16
2022-10-16T21:23:10.046Z,17.06
2022-10-16T21:28:41.849Z,16.99
2022-10-16T21:34:13.783Z,16.88
2022-10-16T21:45:17.417Z,16.80
2022-10-16T21:50:49.122Z,16.69
2022-10-16T21:56:20.991Z,16.67
2022-10-16T22:01:52.781Z,16.59
2022-10-16T22:07:24.702Z,16.57
2022-10-16T22:12:56.122Z,16.51
2022-10-16T22:18:28.147Z,16.50
2022-10-16T22:23:59.789Z,16.44
2022-10-16T22:29:31.610Z,16.43
2022-10-16T22:35:03.738Z,16.33
2022-10-16T22:40:36.026Z,16.30
2022-10-16T22:46:08.320Z,16.16
2022-10-16T22:51:40.393Z,16.08
2022-10-16T22:57:12.361Z,15.97
2022-10-16T23:02:44.730Z,15.90
2022-10-16T23:08:16.932Z,15.79
2022-10-16T23:13:49.021Z,15.71
2022-10-16T23:19:20.775Z,15.64
2022-10-16T23:24:52.552Z,15.58
2022-10-16T23:30:24.221Z,15.54
2022-10-16T23:35:56.217Z,15.50
2022-10-16T23:41:27.985Z,15.41
2022-10-16T23:47:00.094Z,15.33
2022-10-16T23:52:33.906Z,15.29
2022-10-16T23:58:05.819Z,15.26
